sensor_id;sensor_type;location;lat;lon;timestamp;temperature;humidity
7290;DHT22;63176;52.678;13.250;2023-12-22T00:01:25;5.70;99.90
7290;DHT22;63176;52.678;13.250;2023-12-22T00:03:51;5.60;99.90
7290;DHT22;63176;52.678;13.250;2023-12-22T00:06:17;5.60;99.90
7290;DHT22;63176;52.678;13.250;2023-12-22T00:08:42;5.60;99.90
7290;DHT22;63176;52.678;13.250;2023-12-22T00:11:08;5.60;99.90
7290;DHT22;63176;52.678;13.250;2023-12-22T00:13:34;5.50;99.90
7290;DHT22;63176;52.678;13.250;2023-12-22T00:16:00;5.40;99.90
7290;DHT22;63176;52.678;13.250;2023-12-22T00:18:26;5.40;99.90
7290;DHT22;63176;52.678;13.250;2023-12-22T00:20:52;5.40;99.90
7290;DHT22;63176;52.678;13.250;2023-12-22T00:23:18;5.40;99.90
7290;DHT22;63176;52.678;13.250;2023-12-22T00:25:43;5.40;99.90
7290;DHT22;63176;52.678;13.250;2023-12-22T00:28:09;5.40;99.90
7290;DHT22;63176;52.678;13.250;2023-12-22T00:30:35;5.40;99.90
7290;DHT22;63176;52.678;13.250;2023-12-22T00:33:00;5.40;99.90
7290;DHT22;63176;52.678;13.250;2023-12-22T00:35:26;5.50;99.90
7290;DHT22;63176;52.678;13.250;2023-12-22T00:37:52;5.50;99.90
7290;DHT22;63176;52.678;13.250;2023-12-22T00:40:18;5.50;99.90
7290;DHT22;63176;52.678;13.250;2023-12-22T00:42:44;5.50;99.90
7290;DHT22;63176;52.678;13.250;2023-12-22T00:45:09;5.60;99.90
7290;DHT22;63176;52.678;13.250;2023-12-22T00:47:36;5.60;99.90
7290;DHT22;63176;52.678;13.250;2023-12-22T00:50:02;5.60;99.90
7290;DHT22;63176;52.678;13.250;2023-12-22T00:52:29;5.60;99.90
7290;DHT22;63176;52.678;13.250;2023-12-22T00:54:55;5.60;99.90
7290;DHT22;63176;52.678;13.250;2023-12-22T00:57:21;5.70;99.90
7290;DHT22;63176;52.678;13.250;2023-12-22T00:59:47;5.60;99.90
7290;DHT22;63176;52.678;13.250;2023-12-22T01:02:14;5.60;99.90
7290;DHT22;63176;52.678;13.250;2023-12-22T01:04:40;5.70;99.90
7290;DHT22;63176;52.678;13.250;2023-12-22T01:07:09;5.70;99.90
7290;DHT22;63176;52.678;13.250;2023-12-22T01:09:35;5.70;99.90
7290;DHT22;63176;52.678;13.250;2023-12-22T01:12:02;5.70;99.90
7290;DHT22;63176;52.678;13.250;2023-12-22T01:14:31;5.70;99.90
7290;DHT22;63176;52.678;13.250;2023-12-22T01:16:57;5.70;99.90
7290;DHT22;63176;52.678;13.250;2023-12-22T01:19:24;5.70;99.90
7290;DHT22;63176;52.678;13.250;2023-12-22T01:21:50;5.60;99.90
7290;DHT22;63176;52.678;13.250;2023-12-22T01:24:16;5.60;99.90
7290;DHT22;63176;52.678;13.250;2023-12-22T01:26:41;5.60;99.90
7290;DHT22;63176;52.678;13.250;2023-12-22T01:29:07;5.60;99.90
7290;DHT22;63176;52.678;13.250;2023-12-22T01:31:33;5.60;99.90
7290;DHT22;63176;52.678;13.250;2023-12-22T01:33:58;5.50;99.90
7290;DHT22;63176;52.678;13.250;2023-12-22T01:36:24;5.50;99.90
7290;DHT22;63176;52.678;13.250;2023-12-22T01:38:49;5.40;99.90
7290;DHT22;63176;52.678;13.250;2023-12-22T01:41:15;5.40;99.90
7290;DHT22;63176;52.678;13.250;2023-12-22T01:43:41;5.40;99.90
7290;DHT22;63176;52.678;13.250;2023-12-22T01:46:07;5.30;99.90
7290;DHT22;63176;52.678;13.250;2023-12-22T01:48:34;5.30;99.90
7290;DHT22;63176;52.678;13.250;2023-12-22T01:51:01;5.30;99.90
7290;DHT22;63176;52.678;13.250;2023-12-22T01:53:28;5.30;99.90
7290;DHT22;63176;52.678;13.250;2023-12-22T01:55:55;5.20;99.90
7290;DHT22;63176;52.678;13.250;2023-12-22T01:58:23;5.20;99.90
7290;DHT22;63176;52.678;13.250;2023-12-22T02:00:49;5.20;99.90
7290;DHT22;63176;52.678;13.250;2023-12-22T02:03:16;5.20;99.90
7290;DHT22;63176;52.678;13.250;2023-12-22T02:05:43;5.20;99.90
7290;DHT22;63176;52.678;13.250;2023-12-22T02:08:10;5.10;99.90
7290;DHT22;63176;52.678;13.250;2023-12-22T02:10:36;5.10;99.90
7290;DHT22;63176;52.678;13.250;2023-12-22T02:13:03;5.10;99.90
7290;DHT22;63176;52.678;13.250;2023-12-22T02:15:30;5.10;99.90
7290;DHT22;63176;52.678;13.250;2023-12-22T02:18:04;5.00;99.90
7290;DHT22;63176;52.678;13.250;2023-12-22T02:20:32;5.00;99.90
7290;DHT22;63176;52.678;13.250;2023-12-22T02:22:58;5.00;99.90
7290;DHT22;63176;52.678;13.250;2023-12-22T02:25:23;4.90;99.90
7290;DHT22;63176;52.678;13.250;2023-12-22T02:27:53;4.90;99.90
7290;DHT22;63176;52.678;13.250;2023-12-22T02:30:32;4.90;99.90
7290;DHT22;63176;52.678;13.250;2023-12-22T02:33:04;4.90;99.90
7290;DHT22;63176;52.678;13.250;2023-12-22T02:35:33;4.90;99.90
7290;DHT22;63176;52.678;13.250;2023-12-22T02:38:00;4.90;99.90
7290;DHT22;63176;52.678;13.250;2023-12-22T02:40:27;4.90;99.90
7290;DHT22;63176;52.678;13.250;2023-12-22T02:42:53;4.90;99.90
7290;DHT22;63176;52.678;13.250;2023-12-22T02:45:19;4.90;99.90
7290;DHT22;63176;52.678;13.250;2023-12-22T02:47:46;4.90;99.90
7290;DHT22;63176;52.678;13.250;2023-12-22T02:50:16;4.90;99.90
7290;DHT22;63176;52.678;13.250;2023-12-22T02:52:42;4.90;99.90
7290;DHT22;63176;52.678;13.250;2023-12-22T02:55:09;4.90;99.90
7290;DHT22;63176;52.678;13.250;2023-12-22T02:57:34;4.80;99.90
7290;DHT22;63176;52.678;13.250;2023-12-22T03:00:00;4.80;99.90
7290;DHT22;63176;52.678;13.250;2023-12-22T03:02:26;4.90;99.90
7290;DHT22;63176;52.678;13.250;2023-12-22T03:04:52;4.80;99.90
7290;DHT22;63176;52.678;13.250;2023-12-22T03:07:18;4.70;99.90
7290;DHT22;63176;52.678;13.250;2023-12-22T03:09:43;4.70;99.90
7290;DHT22;63176;52.678;13.250;2023-12-22T03:12:10;4.70;99.90
7290;DHT22;63176;52.678;13.250;2023-12-22T03:14:36;4.70;99.90
7290;DHT22;63176;52.678;13.250;2023-12-22T03:17:03;4.70;99.90
7290;DHT22;63176;52.678;13.250;2023-12-22T03:19:29;4.70;99.90
7290;DHT22;63176;52.678;13.250;2023-12-22T03:21:55;4.60;99.90
7290;DHT22;63176;52.678;13.250;2023-12-22T03:24:22;4.60;99.90
7290;DHT22;63176;52.678;13.250;2023-12-22T03:26:49;4.70;99.90
7290;DHT22;63176;52.678;13.250;2023-12-22T03:29:15;4.70;99.90
7290;DHT22;63176;52.678;13.250;2023-12-22T03:31:40;4.70;99.90
7290;DHT22;63176;52.678;13.250;2023-12-22T03:34:06;4.70;99.90
7290;DHT22;63176;52.678;13.250;2023-12-22T03:36:32;4.70;99.90
7290;DHT22;63176;52.678;13.250;2023-12-22T03:38:58;4.60;99.90
7290;DHT22;63176;52.678;13.250;2023-12-22T03:41:24;4.60;99.90
7290;DHT22;63176;52.678;13.250;2023-12-22T03:43:50;4.60;99.90
7290;DHT22;63176;52.678;13.250;2023-12-22T03:46:16;4.60;99.90
7290;DHT22;63176;52.678;13.250;2023-12-22T03:48:42;4.60;99.90
7290;DHT22;63176;52.678;13.250;2023-12-22T03:51:07;4.50;99.90
7290;DHT22;63176;52.678;13.250;2023-12-22T03:53:33;4.60;99.90
7290;DHT22;63176;52.678;13.250;2023-12-22T03:55:59;4.60;99.90
7290;DHT22;63176;52.678;13.250;2023-12-22T03:58:24;4.60;99.90
7290;DHT22;63176;52.678;13.250;2023-12-22T04:00:51;4.60;99.90
7290;DHT22;63176;52.678;13.250;2023-12-22T04:03:17;4.60;99.90
7290;DHT22;63176;52.678;13.250;2023-12-22T04:05:43;4.60;99.90
7290;DHT22;63176;52.678;13.250;2023-12-22T04:08:08;4.60;99.90
7290;DHT22;63176;52.678;13.250;2023-12-22T04:10:34;4.60;99.90
7290;DHT22;63176;52.678;13.250;2023-12-22T04:12:59;4.60;99.90
7290;DHT22;63176;52.678;13.250;2023-12-22T04:15:25;4.50;99.90
7290;DHT22;63176;52.678;13.250;2023-12-22T04:17:51;4.50;99.90
7290;DHT22;63176;52.678;13.250;2023-12-22T04:20:16;4.50;99.90
7290;DHT22;63176;52.678;13.250;2023-12-22T04:22:42;4.50;99.90
7290;DHT22;63176;52.678;13.250;2023-12-22T04:25:08;4.40;99.90
7290;DHT22;63176;52.678;13.250;2023-12-22T04:27:37;4.40;99.90
7290;DHT22;63176;52.678;13.250;2023-12-22T04:30:03;4.40;99.90
7290;DHT22;63176;52.678;13.250;2023-12-22T04:32:28;4.40;99.90
7290;DHT22;63176;52.678;13.250;2023-12-22T04:34:54;4.40;99.90
7290;DHT22;63176;52.678;13.250;2023-12-22T04:37:20;4.40;99.90
7290;DHT22;63176;52.678;13.250;2023-12-22T04:39:45;4.40;99.90
7290;DHT22;63176;52.678;13.250;2023-12-22T04:42:11;4.30;99.90
7290;DHT22;63176;52.678;13.250;2023-12-22T04:44:37;4.40;99.90
7290;DHT22;63176;52.678;13.250;2023-12-22T04:47:03;4.40;99.90
7290;DHT22;63176;52.678;13.250;2023-12-22T04:49:28;4.40;99.90
7290;DHT22;63176;52.678;13.250;2023-12-22T04:51:54;4.40;99.90
7290;DHT22;63176;52.678;13.250;2023-12-22T04:54:20;4.40;99.90
7290;DHT22;63176;52.678;13.250;2023-12-22T04:56:45;4.40;99.90
7290;DHT22;63176;52.678;13.250;2023-12-22T04:59:11;4.40;99.90
7290;DHT22;63176;52.678;13.250;2023-12-22T05:01:37;4.40;99.90
7290;DHT22;63176;52.678;13.250;2023-12-22T05:04:02;4.40;99.90
7290;DHT22;63176;52.678;13.250;2023-12-22T05:06:28;4.40;99.90
7290;DHT22;63176;52.678;13.250;2023-12-22T05:08:56;4.40;99.90
7290;DHT22;63176;52.678;13.250;2023-12-22T05:11:22;4.30;99.90
7290;DHT22;63176;52.678;13.250;2023-12-22T05:13:48;4.30;99.90
7290;DHT22;63176;52.678;13.250;2023-12-22T05:16:14;4.30;99.90
7290;DHT22;63176;52.678;13.250;2023-12-22T05:18:40;4.30;99.90
7290;DHT22;63176;52.678;13.250;2023-12-22T05:21:05;4.30;99.90
7290;DHT22;63176;52.678;13.250;2023-12-22T05:23:31;4.20;99.90
7290;DHT22;63176;52.678;13.250;2023-12-22T05:25:58;4.20;99.90
7290;DHT22;63176;52.678;13.250;2023-12-22T05:28:23;4.20;99.90
7290;DHT22;63176;52.678;13.250;2023-12-22T05:30:49;4.20;99.90
7290;DHT22;63176;52.678;13.250;2023-12-22T05:33:15;4.20;99.90
7290;DHT22;63176;52.678;13.250;2023-12-22T05:35:40;4.20;99.90
7290;DHT22;63176;52.678;13.250;2023-12-22T05:38:06;4.30;99.90
7290;DHT22;63176;52.678;13.250;2023-12-22T05:40:32;4.20;99.90
7290;DHT22;63176;52.678;13.250;2023-12-22T05:42:58;4.20;99.90
7290;DHT22;63176;52.678;13.250;2023-12-22T05:45:24;4.20;99.90
7290;DHT22;63176;52.678;13.250;2023-12-22T05:47:52;4.20;99.90
7290;DHT22;63176;52.678;13.250;2023-12-22T05:50:18;4.20;99.90
7290;DHT22;63176;52.678;13.250;2023-12-22T05:52:43;4.20;99.90
7290;DHT22;63176;52.678;13.250;2023-12-22T05:55:10;4.10;99.90
7290;DHT22;63176;52.678;13.250;2023-12-22T05:57:36;4.10;99.90
7290;DHT22;63176;52.678;13.250;2023-12-22T06:00:02;4.20;99.90
7290;DHT22;63176;52.678;13.250;2023-12-22T06:02:30;4.10;99.90
7290;DHT22;63176;52.678;13.250;2023-12-22T06:04:55;4.20;99.90
7290;DHT22;63176;52.678;13.250;2023-12-22T06:07:21;4.20;99.90
7290;DHT22;63176;52.678;13.250;2023-12-22T06:09:47;4.20;99.90
7290;DHT22;63176;52.678;13.250;2023-12-22T06:12:12;4.20;99.90
7290;DHT22;63176;52.678;13.250;2023-12-22T06:14:38;4.20;99.90
7290;DHT22;63176;52.678;13.250;2023-12-22T06:17:04;4.20;99.90
7290;DHT22;63176;52.678;13.250;2023-12-22T06:19:29;4.20;99.90
7290;DHT22;63176;52.678;13.250;2023-12-22T06:21:56;4.20;99.90
7290;DHT22;63176;52.678;13.250;2023-12-22T06:24:23;4.20;99.90
7290;DHT22;63176;52.678;13.250;2023-12-22T06:26:49;4.30;99.90
7290;DHT22;63176;52.678;13.250;2023-12-22T06:29:14;4.30;99.90
7290;DHT22;63176;52.678;13.250;2023-12-22T06:31:41;4.20;99.90
7290;DHT22;63176;52.678;13.250;2023-12-22T06:34:07;4.20;99.90
7290;DHT22;63176;52.678;13.250;2023-12-22T06:36:33;4.20;99.90
7290;DHT22;63176;52.678;13.250;2023-12-22T06:38:59;4.30;99.90
7290;DHT22;63176;52.678;13.250;2023-12-22T06:41:27;4.30;99.90
7290;DHT22;63176;52.678;13.250;2023-12-22T06:43:53;4.30;99.90
7290;DHT22;63176;52.678;13.250;2023-12-22T06:46:20;4.30;99.90
7290;DHT22;63176;52.678;13.250;2023-12-22T06:48:46;4.20;99.90
7290;DHT22;63176;52.678;13.250;2023-12-22T06:51:28;4.20;99.90
7290;DHT22;63176;52.678;13.250;2023-12-22T06:53:56;4.20;99.90
7290;DHT22;63176;52.678;13.250;2023-12-22T06:56:23;4.10;99.90
7290;DHT22;63176;52.678;13.250;2023-12-22T06:58:51;4.00;99.90
7290;DHT22;63176;52.678;13.250;2023-12-22T07:01:32;4.00;99.90
7290;DHT22;63176;52.678;13.250;2023-12-22T07:03:58;4.00;99.90
7290;DHT22;63176;52.678;13.250;2023-12-22T07:06:29;3.90;99.90
7290;DHT22;63176;52.678;13.250;2023-12-22T07:11:48;3.80;99.90
7290;DHT22;63176;52.678;13.250;2023-12-22T07:14:15;3.80;99.90
7290;DHT22;63176;52.678;13.250;2023-12-22T07:16:41;3.70;99.90
7290;DHT22;63176;52.678;13.250;2023-12-22T07:19:10;3.70;99.90
7290;DHT22;63176;52.678;13.250;2023-12-22T07:21:42;3.70;99.90
7290;DHT22;63176;52.678;13.250;2023-12-22T07:24:08;3.60;99.90
7290;DHT22;63176;52.678;13.250;2023-12-22T07:26:33;3.70;99.90
7290;DHT22;63176;52.678;13.250;2023-12-22T07:28:59;3.70;99.90
7290;DHT22;63176;52.678;13.250;2023-12-22T07:31:25;3.70;99.90
7290;DHT22;63176;52.678;13.250;2023-12-22T07:33:51;3.80;99.90
7290;DHT22;63176;52.678;13.250;2023-12-22T07:36:17;3.80;99.90
7290;DHT22;63176;52.678;13.250;2023-12-22T07:38:47;3.80;99.90
7290;DHT22;63176;52.678;13.250;2023-12-22T07:41:12;3.90;99.90
7290;DHT22;63176;52.678;13.250;2023-12-22T07:43:38;3.90;99.90
7290;DHT22;63176;52.678;13.250;2023-12-22T07:46:04;4.00;99.90
7290;DHT22;63176;52.678;13.250;2023-12-22T07:48:30;4.00;99.90
7290;DHT22;63176;52.678;13.250;2023-12-22T07:50:55;4.00;99.90
7290;DHT22;63176;52.678;13.250;2023-12-22T07:53:21;4.10;99.90
7290;DHT22;63176;52.678;13.250;2023-12-22T07:55:47;4.10;99.90
7290;DHT22;63176;52.678;13.250;2023-12-22T07:58:13;4.10;99.90
7290;DHT22;63176;52.678;13.250;2023-12-22T08:00:39;4.20;99.90
7290;DHT22;63176;52.678;13.250;2023-12-22T08:03:05;4.20;99.90
7290;DHT22;63176;52.678;13.250;2023-12-22T08:05:31;4.10;99.90
7290;DHT22;63176;52.678;13.250;2023-12-22T08:07:57;4.10;99.90
7290;DHT22;63176;52.678;13.250;2023-12-22T08:10:22;4.10;99.90
7290;DHT22;63176;52.678;13.250;2023-12-22T08:12:48;4.10;99.90
7290;DHT22;63176;52.678;13.250;2023-12-22T08:15:14;4.10;99.90
7290;DHT22;63176;52.678;13.250;2023-12-22T08:17:49;4.10;99.90
7290;DHT22;63176;52.678;13.250;2023-12-22T08:20:19;4.10;99.90
7290;DHT22;63176;52.678;13.250;2023-12-22T08:22:49;4.10;99.90
7290;DHT22;63176;52.678;13.250;2023-12-22T08:25:15;4.10;99.90
7290;DHT22;63176;52.678;13.250;2023-12-22T08:27:41;4.10;99.90
7290;DHT22;63176;52.678;13.250;2023-12-22T08:30:10;4.10;99.90
7290;DHT22;63176;52.678;13.250;2023-12-22T08:32:36;4.00;99.90
7290;DHT22;63176;52.678;13.250;2023-12-22T08:35:02;4.10;99.90
7290;DHT22;63176;52.678;13.250;2023-12-22T08:37:30;4.00;99.90
7290;DHT22;63176;52.678;13.250;2023-12-22T08:39:55;4.00;99.90
7290;DHT22;63176;52.678;13.250;2023-12-22T08:42:21;4.00;99.90
7290;DHT22;63176;52.678;13.250;2023-12-22T08:44:48;4.00;99.90
7290;DHT22;63176;52.678;13.250;2023-12-22T08:47:13;4.00;99.90
7290;DHT22;63176;52.678;13.250;2023-12-22T08:49:39;4.00;99.90
7290;DHT22;63176;52.678;13.250;2023-12-22T08:52:05;4.00;99.90
7290;DHT22;63176;52.678;13.250;2023-12-22T08:54:30;4.10;99.90
7290;DHT22;63176;52.678;13.250;2023-12-22T08:56:56;4.00;99.90
7290;DHT22;63176;52.678;13.250;2023-12-22T08:59:22;4.10;99.90
7290;DHT22;63176;52.678;13.250;2023-12-22T09:01:48;4.10;99.90
7290;DHT22;63176;52.678;13.250;2023-12-22T09:04:13;4.10;99.90
7290;DHT22;63176;52.678;13.250;2023-12-22T09:06:40;4.20;99.90
7290;DHT22;63176;52.678;13.250;2023-12-22T09:09:06;4.20;99.90
7290;DHT22;63176;52.678;13.250;2023-12-22T09:11:33;4.30;99.90
7290;DHT22;63176;52.678;13.250;2023-12-22T09:13:59;4.30;99.90
7290;DHT22;63176;52.678;13.250;2023-12-22T09:16:25;4.40;99.90
7290;DHT22;63176;52.678;13.250;2023-12-22T09:18:51;4.40;99.90
7290;DHT22;63176;52.678;13.250;2023-12-22T09:21:17;4.50;99.90
7290;DHT22;63176;52.678;13.250;2023-12-22T09:23:46;4.50;99.90
7290;DHT22;63176;52.678;13.250;2023-12-22T09:26:16;4.50;99.90
7290;DHT22;63176;52.678;13.250;2023-12-22T09:28:42;4.50;99.90
7290;DHT22;63176;52.678;13.250;2023-12-22T09:31:08;4.60;99.90
7290;DHT22;63176;52.678;13.250;2023-12-22T09:33:34;4.60;99.90
7290;DHT22;63176;52.678;13.250;2023-12-22T09:35:59;4.70;99.90
7290;DHT22;63176;52.678;13.250;2023-12-22T09:38:25;4.80;99.90
7290;DHT22;63176;52.678;13.250;2023-12-22T09:40:51;4.80;99.90
7290;DHT22;63176;52.678;13.250;2023-12-22T09:43:19;4.80;99.90
7290;DHT22;63176;52.678;13.250;2023-12-22T09:45:51;4.90;99.90
7290;DHT22;63176;52.678;13.250;2023-12-22T09:48:21;4.90;99.90
7290;DHT22;63176;52.678;13.250;2023-12-22T09:50:53;4.90;99.90
7290;DHT22;63176;52.678;13.250;2023-12-22T09:53:20;4.80;99.90
7290;DHT22;63176;52.678;13.250;2023-12-22T09:55:46;4.80;99.90
7290;DHT22;63176;52.678;13.250;2023-12-22T09:58:17;4.80;99.90
7290;DHT22;63176;52.678;13.250;2023-12-22T10:00:43;4.80;99.90
7290;DHT22;63176;52.678;13.250;2023-12-22T10:03:11;4.80;99.90
7290;DHT22;63176;52.678;13.250;2023-12-22T10:05:40;4.80;99.90
7290;DHT22;63176;52.678;13.250;2023-12-22T10:08:06;4.90;99.90
7290;DHT22;63176;52.678;13.250;2023-12-22T10:10:32;4.90;99.90
7290;DHT22;63176;52.678;13.250;2023-12-22T10:12:59;4.90;99.90
7290;DHT22;63176;52.678;13.250;2023-12-22T10:15:25;4.90;99.90
7290;DHT22;63176;52.678;13.250;2023-12-22T10:17:55;4.90;99.90
7290;DHT22;63176;52.678;13.250;2023-12-22T10:20:21;5.00;99.90
7290;DHT22;63176;52.678;13.250;2023-12-22T10:22:47;4.90;99.90
7290;DHT22;63176;52.678;13.250;2023-12-22T10:25:20;4.90;99.90
7290;DHT22;63176;52.678;13.250;2023-12-22T10:27:47;5.00;99.90
7290;DHT22;63176;52.678;13.250;2023-12-22T10:30:13;4.90;99.90
7290;DHT22;63176;52.678;13.250;2023-12-22T10:32:40;5.00;99.90
7290;DHT22;63176;52.678;13.250;2023-12-22T10:35:09;5.00;99.90
7290;DHT22;63176;52.678;13.250;2023-12-22T10:37:35;5.00;99.90
7290;DHT22;63176;52.678;13.250;2023-12-22T10:40:04;5.00;99.90
7290;DHT22;63176;52.678;13.250;2023-12-22T10:42:30;5.10;99.90
7290;DHT22;63176;52.678;13.250;2023-12-22T10:44:56;5.10;99.90
7290;DHT22;63176;52.678;13.250;2023-12-22T10:47:22;5.20;99.90
7290;DHT22;63176;52.678;13.250;2023-12-22T10:49:49;5.20;99.90
7290;DHT22;63176;52.678;13.250;2023-12-22T10:52:18;5.20;99.90
7290;DHT22;63176;52.678;13.250;2023-12-22T10:54:45;5.20;99.90
7290;DHT22;63176;52.678;13.250;2023-12-22T10:57:12;5.20;99.90
7290;DHT22;63176;52.678;13.250;2023-12-22T10:59:45;5.20;99.90
7290;DHT22;63176;52.678;13.250;2023-12-22T11:02:15;5.20;99.90
7290;DHT22;63176;52.678;13.250;2023-12-22T11:04:42;5.20;99.90
7290;DHT22;63176;52.678;13.250;2023-12-22T11:07:10;5.20;99.90
7290;DHT22;63176;52.678;13.250;2023-12-22T11:09:38;5.30;99.90
7290;DHT22;63176;52.678;13.250;2023-12-22T11:12:07;5.30;99.90
7290;DHT22;63176;52.678;13.250;2023-12-22T11:14:33;5.30;99.90
7290;DHT22;63176;52.678;13.250;2023-12-22T11:17:00;5.30;99.90
7290;DHT22;63176;52.678;13.250;2023-12-22T11:19:27;5.30;99.90
7290;DHT22;63176;52.678;13.250;2023-12-22T11:21:54;5.30;99.90
7290;DHT22;63176;52.678;13.250;2023-12-22T11:24:20;5.30;99.90
7290;DHT22;63176;52.678;13.250;2023-12-22T11:26:47;5.30;99.90
7290;DHT22;63176;52.678;13.250;2023-12-22T11:29:15;5.30;99.90
7290;DHT22;63176;52.678;13.250;2023-12-22T11:31:45;5.30;99.90
7290;DHT22;63176;52.678;13.250;2023-12-22T11:34:12;5.40;99.90
7290;DHT22;63176;52.678;13.250;2023-12-22T11:36:38;5.40;99.90
7290;DHT22;63176;52.678;13.250;2023-12-22T11:39:05;5.30;99.90
7290;DHT22;63176;52.678;13.250;2023-12-22T11:41:34;5.40;99.90
7290;DHT22;63176;52.678;13.250;2023-12-22T11:44:01;5.40;99.90
7290;DHT22;63176;52.678;13.250;2023-12-22T11:46:29;5.40;99.90
7290;DHT22;63176;52.678;13.250;2023-12-22T11:48:56;5.40;99.90
7290;DHT22;63176;52.678;13.250;2023-12-22T11:51:22;5.50;99.90
7290;DHT22;63176;52.678;13.250;2023-12-22T11:53:47;5.40;99.90
7290;DHT22;63176;52.678;13.250;2023-12-22T11:56:13;5.50;99.90
7290;DHT22;63176;52.678;13.250;2023-12-22T11:58:45;5.40;99.90
7290;DHT22;63176;52.678;13.250;2023-12-22T12:01:25;5.40;99.90
7290;DHT22;63176;52.678;13.250;2023-12-22T12:03:55;5.50;99.90
7290;DHT22;63176;52.678;13.250;2023-12-22T12:08:52;5.50;99.90
7290;DHT22;63176;52.678;13.250;2023-12-22T12:11:19;5.50;99.90
7290;DHT22;63176;52.678;13.250;2023-12-22T12:13:47;5.50;99.90
7290;DHT22;63176;52.678;13.250;2023-12-22T12:16:14;5.50;99.90
7290;DHT22;63176;52.678;13.250;2023-12-22T12:18:41;5.50;99.90
7290;DHT22;63176;52.678;13.250;2023-12-22T12:21:08;5.50;99.90
7290;DHT22;63176;52.678;13.250;2023-12-22T12:23:35;5.40;99.90
7290;DHT22;63176;52.678;13.250;2023-12-22T12:26:01;5.40;99.90
7290;DHT22;63176;52.678;13.250;2023-12-22T12:28:28;5.40;99.90
7290;DHT22;63176;52.678;13.250;2023-12-22T12:31:06;5.40;99.90
7290;DHT22;63176;52.678;13.250;2023-12-22T12:33:32;5.30;99.90
7290;DHT22;63176;52.678;13.250;2023-12-22T12:36:00;5.30;99.90
7290;DHT22;63176;52.678;13.250;2023-12-22T12:38:55;5.30;99.90
7290;DHT22;63176;52.678;13.250;2023-12-22T12:41:31;5.30;99.90
7290;DHT22;63176;52.678;13.250;2023-12-22T12:43:58;5.20;99.90
7290;DHT22;63176;52.678;13.250;2023-12-22T12:46:35;5.30;99.90
7290;DHT22;63176;52.678;13.250;2023-12-22T12:49:06;5.30;99.90
7290;DHT22;63176;52.678;13.250;2023-12-22T12:51:52;5.20;99.90
7290;DHT22;63176;52.678;13.250;2023-12-22T12:54:17;5.30;99.90
7290;DHT22;63176;52.678;13.250;2023-12-22T12:56:47;5.20;99.90
7290;DHT22;63176;52.678;13.250;2023-12-22T12:59:15;5.20;99.90
7290;DHT22;63176;52.678;13.250;2023-12-22T13:01:42;5.20;99.90
7290;DHT22;63176;52.678;13.250;2023-12-22T13:04:09;5.20;99.90
7290;DHT22;63176;52.678;13.250;2023-12-22T13:06:34;5.20;99.90
7290;DHT22;63176;52.678;13.250;2023-12-22T13:09:00;5.20;99.90
7290;DHT22;63176;52.678;13.250;2023-12-22T13:11:28;5.30;99.90
7290;DHT22;63176;52.678;13.250;2023-12-22T13:13:54;5.30;99.90
7290;DHT22;63176;52.678;13.250;2023-12-22T13:16:20;5.30;99.90
7290;DHT22;63176;52.678;13.250;2023-12-22T13:18:47;5.30;99.90
7290;DHT22;63176;52.678;13.250;2023-12-22T13:21:14;5.30;99.90
7290;DHT22;63176;52.678;13.250;2023-12-22T13:23:40;5.30;99.90
7290;DHT22;63176;52.678;13.250;2023-12-22T13:26:06;5.30;99.90
7290;DHT22;63176;52.678;13.250;2023-12-22T13:28:32;5.30;99.90
7290;DHT22;63176;52.678;13.250;2023-12-22T13:30:58;5.30;99.90
7290;DHT22;63176;52.678;13.250;2023-12-22T13:33:24;5.30;99.90
7290;DHT22;63176;52.678;13.250;2023-12-22T13:35:57;5.30;99.90
7290;DHT22;63176;52.678;13.250;2023-12-22T13:38:24;5.30;99.90
7290;DHT22;63176;52.678;13.250;2023-12-22T13:40:49;5.30;99.90
7290;DHT22;63176;52.678;13.250;2023-12-22T13:43:15;5.30;99.90
7290;DHT22;63176;52.678;13.250;2023-12-22T13:45:41;5.30;99.90
7290;DHT22;63176;52.678;13.250;2023-12-22T13:48:07;5.30;99.90
7290;DHT22;63176;52.678;13.250;2023-12-22T13:50:33;5.30;99.90
7290;DHT22;63176;52.678;13.250;2023-12-22T13:53:11;5.30;99.90
7290;DHT22;63176;52.678;13.250;2023-12-22T13:55:37;5.30;99.90
7290;DHT22;63176;52.678;13.250;2023-12-22T13:58:04;5.30;99.90
7290;DHT22;63176;52.678;13.250;2023-12-22T14:00:30;5.30;99.90
7290;DHT22;63176;52.678;13.250;2023-12-22T14:02:57;5.30;99.90
7290;DHT22;63176;52.678;13.250;2023-12-22T14:05:23;5.30;99.90
7290;DHT22;63176;52.678;13.250;2023-12-22T14:07:49;5.40;99.90
7290;DHT22;63176;52.678;13.250;2023-12-22T14:10:15;5.30;99.90
7290;DHT22;63176;52.678;13.250;2023-12-22T14:12:41;5.40;99.90
7290;DHT22;63176;52.678;13.250;2023-12-22T14:15:08;5.40;99.90
7290;DHT22;63176;52.678;13.250;2023-12-22T14:17:34;5.30;99.90
7290;DHT22;63176;52.678;13.250;2023-12-22T14:19:59;5.30;99.90
7290;DHT22;63176;52.678;13.250;2023-12-22T14:22:25;5.30;99.90
7290;DHT22;63176;52.678;13.250;2023-12-22T14:24:52;5.20;99.90
7290;DHT22;63176;52.678;13.250;2023-12-22T14:27:17;5.20;99.90
7290;DHT22;63176;52.678;13.250;2023-12-22T14:29:44;5.20;99.90
7290;DHT22;63176;52.678;13.250;2023-12-22T14:32:10;5.20;99.90
7290;DHT22;63176;52.678;13.250;2023-12-22T14:34:37;5.10;99.90
7290;DHT22;63176;52.678;13.250;2023-12-22T14:37:03;5.10;99.90
7290;DHT22;63176;52.678;13.250;2023-12-22T14:39:29;5.10;99.90
7290;DHT22;63176;52.678;13.250;2023-12-22T14:41:56;5.00;99.90
7290;DHT22;63176;52.678;13.250;2023-12-22T14:44:22;5.00;99.90
7290;DHT22;63176;52.678;13.250;2023-12-22T14:46:48;5.00;99.90
7290;DHT22;63176;52.678;13.250;2023-12-22T14:49:13;4.90;99.90
7290;DHT22;63176;52.678;13.250;2023-12-22T14:51:39;4.90;99.90
7290;DHT22;63176;52.678;13.250;2023-12-22T14:54:06;4.80;99.90
7290;DHT22;63176;52.678;13.250;2023-12-22T14:56:32;4.80;99.90
7290;DHT22;63176;52.678;13.250;2023-12-22T14:58:58;4.80;99.90
7290;DHT22;63176;52.678;13.250;2023-12-22T15:01:24;4.80;99.90
7290;DHT22;63176;52.678;13.250;2023-12-22T15:03:50;4.80;99.90
7290;DHT22;63176;52.678;13.250;2023-12-22T15:06:15;4.80;99.90
7290;DHT22;63176;52.678;13.250;2023-12-22T15:08:41;4.80;99.90
7290;DHT22;63176;52.678;13.250;2023-12-22T15:11:07;4.70;99.90
7290;DHT22;63176;52.678;13.250;2023-12-22T15:13:34;4.70;99.90
7290;DHT22;63176;52.678;13.250;2023-12-22T15:16:07;4.70;99.90
7290;DHT22;63176;52.678;13.250;2023-12-22T15:18:32;4.60;99.90
7290;DHT22;63176;52.678;13.250;2023-12-22T15:20:58;4.60;99.90
7290;DHT22;63176;52.678;13.250;2023-12-22T15:23:24;4.60;99.90
7290;DHT22;63176;52.678;13.250;2023-12-22T15:25:51;4.60;99.90
7290;DHT22;63176;52.678;13.250;2023-12-22T15:28:17;4.60;99.90
7290;DHT22;63176;52.678;13.250;2023-12-22T15:30:43;4.60;99.90
7290;DHT22;63176;52.678;13.250;2023-12-22T15:33:09;4.50;99.90
7290;DHT22;63176;52.678;13.250;2023-12-22T15:35:35;4.50;99.90
7290;DHT22;63176;52.678;13.250;2023-12-22T15:38:00;4.50;99.90
7290;DHT22;63176;52.678;13.250;2023-12-22T15:40:26;4.40;99.90
7290;DHT22;63176;52.678;13.250;2023-12-22T15:42:52;4.40;99.90
7290;DHT22;63176;52.678;13.250;2023-12-22T15:45:18;4.40;99.90
7290;DHT22;63176;52.678;13.250;2023-12-22T15:47:44;4.40;99.90